Time;durP1;ratioP1;P1;durP2;ratioP2;P2;SDS_P1;SDS_P2;PMS_P1;PMS_P2;Temp;Humidity;BMP_temperature;BMP_pressure;BME280_temperature;BME280_humidity;BME280_pressure;Samples;Min_cycle;Max_cycle;Signal;HPM_P1;HPM_P2
2022/05/06 00:02:02;;;;;;;;;;;;;;;5.58;37.70;100131.69;5033836;28;20048;-63
2022/05/06 00:04:28;;;;;;;;;;;;;;;5.61;37.69;100129.50;5033917;28;20382;-62
2022/05/06 00:06:53;;;;;;;;;;;;;;;5.62;38.74;100125.09;5033851;28;19936;-63
2022/05/06 00:09:19;;;;;;;;;;;;;;;5.62;37.91;100128.53;5033597;28;20345;-64
2022/05/06 00:11:44;;;;;;;;;;;;;;;5.63;37.51;100132.78;5033892;28;19933;-64
2022/05/06 00:14:10;;;;;;;;;;;;;;;5.66;37.63;100132.41;5032359;28;20456;-64
2022/05/06 00:16:36;;;;;;;;;;;;;;;5.71;38.25;100129.22;5032113;28;19937;-64
2022/05/06 00:19:01;;;;;;;;;;;;;;;5.70;37.28;100131.00;5033358;28;19925;-63
2022/05/06 00:21:26;;;;;;;;;;;;;;;5.69;38.21;100131.22;5033714;28;19972;-64
2022/05/06 00:23:52;;;;;;;;;;;;;;;5.68;38.07;100132.22;5033095;28;19925;-66
2022/05/06 00:26:18;;;;;;;;;;;;;;;5.68;37.62;100135.66;5031932;28;19956;-64
2022/05/06 00:28:44;;;;;;;;;;;;;;;5.71;37.38;100134.47;5012189;28;19925;-64
2022/05/06 00:31:09;;;;;;;;;;;;;;;5.67;37.65;100134.00;5043456;28;20271;-64
2022/05/06 00:33:35;;;;;;;;;;;;;;;5.63;37.92;100124.88;5032969;28;19977;-65
2022/05/06 00:36:01;;;;;;;;;;;;;;;5.64;37.98;100126.50;5031704;28;19933;-64
2022/05/06 00:38:27;;;;;;;;;;;;;;;5.61;38.26;100134.75;5032771;28;19971;-65
2022/05/06 00:40:53;;;;;;;;;;;;;;;5.61;38.33;100136.59;5031743;28;19979;-64
2022/05/06 00:43:19;;;;;;;;;;;;;;;5.58;38.23;100132.50;5031805;28;20463;-64
2022/05/06 00:45:47;;;;;;;;;;;;;;;5.57;37.98;100132.72;5033108;28;19929;-65
2022/05/06 00:48:14;;;;;;;;;;;;;;;5.55;37.63;100139.97;5032991;28;19925;-64
2022/05/06 00:50:40;;;;;;;;;;;;;;;5.53;37.83;100140.16;5031738;28;19936;-63
2022/05/06 00:53:08;;;;;;;;;;;;;;;5.51;38.62;100146.59;5015300;28;19951;-64
2022/05/06 00:55:34;;;;;;;;;;;;;;;5.50;38.04;100130.03;5014981;28;19936;-63
2022/05/06 00:57:59;;;;;;;;;;;;;;;5.48;38.58;100139.91;5031519;28;19925;-63
2022/05/06 01:00:25;;;;;;;;;;;;;;;5.46;38.06;100136.63;5031505;28;19979;-63
2022/05/06 01:02:51;;;;;;;;;;;;;;;5.47;38.15;100138.25;4998549;28;20429;-65
2022/05/06 01:05:17;;;;;;;;;;;;;;;5.44;39.02;100141.25;5031293;28;19941;-64
2022/05/06 01:07:44;;;;;;;;;;;;;;;5.42;38.52;100136.19;5032501;28;19929;-63
2022/05/06 01:10:10;;;;;;;;;;;;;;;5.42;38.57;100136.19;5032176;28;20406;-61
2022/05/06 01:12:37;;;;;;;;;;;;;;;5.40;37.91;100145.25;5026924;28;20361;-64
2022/05/06 01:15:21;;;;;;;;;;;;;;;5.35;38.16;100145.81;5014761;28;20297;-64
2022/05/06 01:17:50;;;;;;;;;;;;;;;5.36;38.16;100144.00;5031270;28;19971;-64
2022/05/06 01:20:16;;;;;;;;;;;;;;;5.34;38.34;100138.13;5014199;28;19966;-63
2022/05/06 01:22:46;;;;;;;;;;;;;;;5.33;38.35;100141.75;5016497;28;20357;-64
2022/05/06 01:25:12;;;;;;;;;;;;;;;5.34;38.18;100138.13;5014610;28;19925;-64
2022/05/06 01:27:38;;;;;;;;;;;;;;;5.32;38.54;100148.81;5031697;28;20306;-64
2022/05/06 01:30:04;;;;;;;;;;;;;;;5.32;39.31;100148.81;5030795;28;19925;-64
2022/05/06 01:32:30;;;;;;;;;;;;;;;5.32;39.20;100151.44;5014552;28;19925;-64
2022/05/06 01:34:56;;;;;;;;;;;;;;;5.30;38.51;100148.19;5030431;28;20295;-65
2022/05/06 01:37:22;;;;;;;;;;;;;;;5.29;38.84;100146.53;5014121;28;19929;-64
2022/05/06 01:39:51;;;;;;;;;;;;;;;5.35;38.86;100150.25;5030668;28;19928;-65
2022/05/06 01:42:18;;;;;;;;;;;;;;;5.41;39.30;100155.59;5030441;28;19979;-63
2022/05/06 01:44:50;;;;;;;;;;;;;;;5.55;38.45;100158.38;5015423;28;19971;-64
2022/05/06 01:47:19;;;;;;;;;;;;;;;5.69;38.79;100152.25;5014363;28;19972;-63
2022/05/06 01:49:46;;;;;;;;;;;;;;;5.83;38.77;100153.22;5030779;28;19982;-62
2022/05/06 01:52:14;;;;;;;;;;;;;;;5.96;38.54;100149.91;5014491;28;20046;-64
2022/05/06 01:54:40;;;;;;;;;;;;;;;6.19;37.84;100149.72;5030532;28;20394;-63
2022/05/06 01:57:06;;;;;;;;;;;;;;;6.44;37.52;100143.03;5030258;28;19940;-64
2022/05/06 01:59:32;;;;;;;;;;;;;;;6.68;37.22;100147.03;5014093;28;20634;-62
2022/05/06 02:02:10;;;;;;;;;;;;;;;6.96;36.29;100151.44;5010612;28;19936;-64
2022/05/06 02:07:24;;;;;;;;;;;;;;;7.46;35.89;100152.88;5046641;28;19960;-65
2022/05/06 02:09:49;;;;;;;;;;;;;;;7.69;35.17;100149.91;5031959;28;19960;-63
2022/05/06 02:12:21;;;;;;;;;;;;;;;7.83;35.22;100148.09;5030012;28;19932;-63
2022/05/06 02:14:59;;;;;;;;;;;;;;;8.10;34.31;100148.13;5015460;28;19925;-63
2022/05/06 02:17:31;;;;;;;;;;;;;;;8.38;34.46;100148.78;5031560;28;20053;-64
2022/05/06 02:20:14;;;;;;;;;;;;;;;8.49;33.51;100144.69;5030505;28;19971;-63
2022/05/06 02:22:58;;;;;;;;;;;;;;;8.68;33.09;100150.16;5032813;28;19925;-64
2022/05/06 02:25:40;;;;;;;;;;;;;;;9.03;32.42;100158.63;5016263;28;19930;-64
2022/05/06 02:28:10;;;;;;;;;;;;;;;9.28;32.72;100153.44;5034304;28;19932;-64
2022/05/06 02:33:24;;;;;;;;;;;;;;;9.92;31.09;100157.78;5035321;28;20413;-64
2022/05/06 02:36:09;;;;;;;;;;;;;;;10.01;30.50;100159.16;5034156;28;19933;-64
2022/05/06 02:38:36;;;;;;;;;;;;;;;10.21;30.99;100161.66;4997682;28;20425;-63
2022/05/06 02:41:02;;;;;;;;;;;;;;;10.64;29.80;100157.44;5031050;28;19933;-64
2022/05/06 02:43:36;;;;;;;;;;;;;;;10.85;29.53;100161.50;5048634;28;20398;-63
2022/05/06 02:46:01;;;;;;;;;;;;;;;10.89;29.70;100166.16;5034219;28;19936;-63
2022/05/06 02:48:27;;;;;;;;;;;;;;;11.09;29.42;100160.66;5034327;28;19925;-64
2022/05/06 02:50:52;;;;;;;;;;;;;;;11.34;28.37;100170.34;5034386;28;19976;-63
2022/05/06 02:53:21;;;;;;;;;;;;;;;11.40;29.04;100173.97;5035257;28;19925;-64
2022/05/06 02:55:47;;;;;;;;;;;;;;;11.47;28.07;100178.16;5033984;28;19929;-64
2022/05/06 02:58:13;;;;;;;;;;;;;;;11.71;28.53;100179.06;5033489;28;20341;-64
2022/05/06 03:00:39;;;;;;;;;;;;;;;12.05;27.88;100184.75;5017566;28;19936;-64
2022/05/06 03:03:07;;;;;;;;;;;;;;;12.21;27.39;100184.09;5033513;28;20317;-65
2022/05/06 03:05:36;;;;;;;;;;;;;;;12.35;27.70;100182.00;5033873;28;20330;-62
2022/05/06 03:08:04;;;;;;;;;;;;;;;12.70;26.83;100183.91;5033996;28;19929;-63
2022/05/06 03:10:31;;;;;;;;;;;;;;;12.77;26.74;100181.13;5033652;28;19929;-63
2022/05/06 03:12:58;;;;;;;;;;;;;;;12.57;27.22;100186.78;5033309;28;19925;-62
2022/05/06 03:15:25;;;;;;;;;;;;;;;12.61;26.67;100180.78;5033503;28;20314;-63
2022/05/06 03:18:02;;;;;;;;;;;;;;;12.72;26.62;100179.97;5033625;28;19932;-65
2022/05/06 03:20:28;;;;;;;;;;;;;;;12.87;26.37;100189.31;5033638;28;19929;-64
2022/05/06 03:22:53;;;;;;;;;;;;;;;12.95;26.30;100189.78;5034240;28;19931;-64
2022/05/06 03:25:20;;;;;;;;;;;;;;;13.13;26.01;100193.34;5034511;28;19933;-63
2022/05/06 03:28:07;;;;;;;;;;;;;;;13.47;26.19;100191.69;5034239;28;20398;-63
2022/05/06 03:30:37;;;;;;;;;;;;;;;13.68;25.92;100192.06;5016880;28;19935;-64
2022/05/06 03:33:21;;;;;;;;;;;;;;;14.08;25.45;100192.78;5015273;28;19987;-64
2022/05/06 03:35:48;;;;;;;;;;;;;;;13.89;25.43;100188.72;5013347;28;19935;-63
2022/05/06 03:38:15;;;;;;;;;;;;;;;13.87;25.68;100198.81;4996999;28;20020;-63
2022/05/06 03:40:44;;;;;;;;;;;;;;;13.72;25.57;100203.88;5029713;28;19929;-64
2022/05/06 03:43:10;;;;;;;;;;;;;;;13.35;26.46;100198.88;5019235;28;19925;-63
2022/05/06 03:45:39;;;;;;;;;;;;;;;12.92;26.92;100192.91;5033030;28;19928;-65
2022/05/06 03:48:07;;;;;;;;;;;;;;;12.60;27.33;100210.28;5032659;28;19925;-67
2022/05/06 03:53:24;;;;;;;;;;;;;;;12.14;27.37;100209.16;5016281;28;19975;-64
2022/05/06 03:55:52;;;;;;;;;;;;;;;12.10;27.88;100203.47;5016811;28;19929;-63
2022/05/06 03:58:18;;;;;;;;;;;;;;;11.97;28.12;100204.50;5032294;28;19925;-64
2022/05/06 04:00:44;;;;;;;;;;;;;;;11.92;28.38;100207.00;5016114;28;19929;-65
2022/05/06 04:03:12;;;;;;;;;;;;;;;11.83;28.61;100214.44;5000132;28;19925;-64
2022/05/06 04:05:38;;;;;;;;;;;;;;;11.75;29.22;100212.09;5000009;28;20309;-65
2022/05/06 04:08:06;;;;;;;;;;;;;;;11.79;28.76;100215.94;5032058;28;20414;-64
2022/05/06 04:10:32;;;;;;;;;;;;;;;11.75;29.01;100209.44;5032410;28;19932;-64
2022/05/06 04:12:59;;;;;;;;;;;;;;;11.69;28.74;100210.34;5032366;28;19979;-64
2022/05/06 04:15:25;;;;;;;;;;;;;;;11.64;29.63;100214.72;4999980;28;19929;-64
2022/05/06 04:17:53;;;;;;;;;;;;;;;11.55;29.34;100211.53;5015558;28;20020;-65
2022/05/06 04:25:50;;;;;;;;;;;;;;;11.25;30.26;100214.16;5032176;28;19933;-64
2022/05/06 04:28:18;;;;;;;;;;;;;;;11.31;30.05;100223.88;5031991;28;19953;-64
2022/05/06 04:30:46;;;;;;;;;;;;;;;11.29;29.96;100224.09;5032097;28;19935;-64
2022/05/06 04:33:14;;;;;;;;;;;;;;;11.20;30.46;100222.75;5015956;28;19931;-66
2022/05/06 04:35:43;;;;;;;;;;;;;;;11.22;30.46;100225.22;5032039;28;19929;-65
2022/05/06 04:38:11;;;;;;;;;;;;;;;11.13;30.61;100228.16;5033536;28;19972;-63
2022/05/06 04:40:38;;;;;;;;;;;;;;;11.16;30.65;100223.44;5031982;28;19977;-65
2022/05/06 04:43:05;;;;;;;;;;;;;;;11.19;30.98;100223.00;5031817;28;20313;-64
2022/05/06 04:45:38;;;;;;;;;;;;;;;11.17;30.88;100230.38;5030927;28;19984;-65
2022/05/06 04:48:06;;;;;;;;;;;;;;;11.25;30.18;100222.13;5031624;28;19936;-65
2022/05/06 04:50:33;;;;;;;;;;;;;;;11.39;30.50;100225.44;5032090;28;19929;-65
2022/05/06 04:52:59;;;;;;;;;;;;;;;11.44;30.63;100234.38;5031717;28;20341;-64
2022/05/06 04:55:25;;;;;;;;;;;;;;;11.41;30.50;100231.31;5031548;28;20317;-65
2022/05/06 04:57:52;;;;;;;;;;;;;;;11.36;30.54;100232.81;5015391;28;19925;-63
2022/05/06 05:00:18;;;;;;;;;;;;;;;11.32;30.66;100231.66;5015267;28;20245;-65
2022/05/06 05:02:46;;;;;;;;;;;;;;;11.42;30.56;100235.63;5031057;28;20309;-66
2022/05/06 05:05:13;;;;;;;;;;;;;;;11.43;30.37;100243.34;5031561;28;19971;-65
2022/05/06 05:07:40;;;;;;;;;;;;;;;11.50;31.19;100241.44;5031506;28;20012;-63
2022/05/06 05:10:08;;;;;;;;;;;;;;;11.48;31.37;100240.03;5014346;28;19925;-63
2022/05/06 05:12:35;;;;;;;;;;;;;;;11.54;30.53;100237.28;5031179;28;19932;-65
2022/05/06 05:15:02;;;;;;;;;;;;;;;11.66;30.67;100239.22;5031292;28;19925;-65
2022/05/06 05:17:31;;;;;;;;;;;;;;;11.78;30.20;100235.56;5031425;28;20413;-65
2022/05/06 05:19:56;;;;;;;;;;;;;;;11.89;30.40;100242.00;5031265;28;19925;-64
2022/05/06 05:22:24;;;;;;;;;;;;;;;11.89;30.75;100238.53;4982795;28;20346;-64
2022/05/06 05:24:51;;;;;;;;;;;;;;;12.05;30.39;100237.88;5031473;28;20023;-64
2022/05/06 05:27:17;;;;;;;;;;;;;;;12.26;30.01;100244.53;5032785;28;20414;-64
2022/05/06 05:29:43;;;;;;;;;;;;;;;12.36;30.10;100247.47;5030460;28;20371;-66
2022/05/06 05:32:10;;;;;;;;;;;;;;;12.58;29.92;100241.59;5014379;28;20419;-64
2022/05/06 05:34:42;;;;;;;;;;;;;;;12.72;29.62;100246.47;5031064;28;19933;-64
2022/05/06 05:37:09;;;;;;;;;;;;;;;12.72;29.35;100248.31;5030936;28;19983;-64
2022/05/06 05:39:35;;;;;;;;;;;;;;;12.78;29.53;100243.94;5030707;28;19936;-66
2022/05/06 05:42:03;;;;;;;;;;;;;;;13.02;29.15;100252.72;5014424;28;19929;-63
2022/05/06 05:50:00;;;;;;;;;;;;;;;13.49;28.78;100245.50;5017287;28;19929;-64
2022/05/06 05:52:25;;;;;;;;;;;;;;;13.72;28.12;100252.63;5030113;28;19975;-64
2022/05/06 05:54:52;;;;;;;;;;;;;;;13.87;28.00;100246.78;5030827;28;19925;-63
2022/05/06 05:57:17;;;;;;;;;;;;;;;13.90;27.93;100250.84;5031386;28;20352;-66
2022/05/06 05:59:43;;;;;;;;;;;;;;;13.97;27.79;100246.16;5030853;28;20024;-65
2022/05/06 06:02:11;;;;;;;;;;;;;;;14.14;27.54;100244.34;5030537;28;19929;-64
2022/05/06 06:04:41;;;;;;;;;;;;;;;14.32;27.47;100251.31;5030202;28;19925;-64
2022/05/06 06:07:08;;;;;;;;;;;;;;;14.34;27.33;100243.88;4997756;28;19984;-62
2022/05/06 06:09:34;;;;;;;;;;;;;;;14.43;27.21;100247.78;5029969;28;19925;-64
2022/05/06 06:12:05;;;;;;;;;;;;;;;14.58;27.32;100252.56;5030397;28;20031;-63
2022/05/06 06:14:32;;;;;;;;;;;;;;;14.62;26.97;100253.72;5031624;28;19932;-62
2022/05/06 06:16:57;;;;;;;;;;;;;;;14.79;26.87;100247.56;5028893;28;20294;-63
2022/05/06 06:19:25;;;;;;;;;;;;;;;14.81;27.08;100261.47;5028677;28;19925;-63
2022/05/06 06:21:51;;;;;;;;;;;;;;;14.88;27.34;100249.59;5026993;28;19929;-64
2022/05/06 06:24:20;;;;;;;;;;;;;;;15.05;26.79;100257.56;5027889;28;20389;-61
2022/05/06 06:26:46;;;;;;;;;;;;;;;15.00;27.08;100252.16;5013516;28;19929;-64
2022/05/06 06:29:18;;;;;;;;;;;;;;;15.05;26.87;100254.88;5011828;28;19983;-63
2022/05/06 06:31:44;;;;;;;;;;;;;;;15.23;26.66;100256.47;5027424;28;20844;-63
2022/05/06 06:34:09;;;;;;;;;;;;;;;15.21;26.61;100251.38;4994478;28;20012;-64
2022/05/06 06:36:37;;;;;;;;;;;;;;;15.32;26.57;100259.53;5028079;28;19929;-63
2022/05/06 06:39:03;;;;;;;;;;;;;;;15.43;26.59;100250.59;5028628;28;19925;-65
2022/05/06 06:41:34;;;;;;;;;;;;;;;15.47;26.32;100256.25;5027595;28;19929;-62
2022/05/06 06:44:00;;;;;;;;;;;;;;;15.49;26.31;100249.59;5029087;28;20397;-61
2022/05/06 06:46:44;;;;;;;;;;;;;;;15.71;25.79;100246.97;5029425;28;19929;-62
2022/05/06 06:49:31;;;;;;;;;;;;;;;15.98;25.83;100256.88;5029661;28;20302;-62
2022/05/06 06:52:04;;;;;;;;;;;;;;;16.06;25.59;100246.53;5013275;28;19987;-62
2022/05/06 06:54:29;;;;;;;;;;;;;;;15.93;25.57;100240.75;5028249;28;19964;-61
2022/05/06 06:56:55;;;;;;;;;;;;;;;15.99;25.29;100245.09;5030613;28;20455;-61
2022/05/06 06:59:21;;;;;;;;;;;;;;;15.98;25.20;100240.81;5029812;28;20275;-63
2022/05/06 07:01:46;;;;;;;;;;;;;;;16.19;25.20;100239.94;5030776;28;19925;-61
2022/05/06 07:04:13;;;;;;;;;;;;;;;16.08;24.69;100249.75;5030830;28;19936;-60
2022/05/06 07:12:07;;;;;;;;;;;;;;;16.10;24.42;100239.59;5034226;28;19932;-62
2022/05/06 07:14:36;;;;;;;;;;;;;;;16.17;24.96;100247.41;5017508;28;19933;-60
2022/05/06 07:17:05;;;;;;;;;;;;;;;16.21;23.76;100237.03;5033329;28;20289;-62
2022/05/06 07:19:35;;;;;;;;;;;;;;;16.06;23.84;100233.16;4999748;28;19935;-62
2022/05/06 07:22:01;;;;;;;;;;;;;;;16.17;24.14;100244.75;5033049;28;19947;-63
2022/05/06 07:24:27;;;;;;;;;;;;;;;16.21;23.76;100240.53;5032867;28;20462;-62
2022/05/06 07:26:53;;;;;;;;;;;;;;;16.24;23.47;100236.53;5032942;28;19925;-63
2022/05/06 07:29:19;;;;;;;;;;;;;;;16.29;23.68;100240.03;5032094;28;20053;-63
2022/05/06 07:31:45;;;;;;;;;;;;;;;16.30;23.12;100230.16;5017162;28;20016;-60
2022/05/06 07:34:10;;;;;;;;;;;;;;;16.31;22.93;100235.25;5031112;28;19929;-63
2022/05/06 07:36:41;;;;;;;;;;;;;;;16.24;22.99;100231.19;5033363;28;19994;-63
2022/05/06 07:39:16;;;;;;;;;;;;;;;16.11;22.92;100235.06;5032165;28;19956;-62
2022/05/06 07:41:43;;;;;;;;;;;;;;;16.05;23.41;100228.84;5014753;28;19925;-62
2022/05/06 07:44:08;;;;;;;;;;;;;;;15.97;23.67;100225.81;5032189;28;19929;-62
2022/05/06 07:46:34;;;;;;;;;;;;;;;15.82;24.06;100234.50;5030842;28;19995;-63
2022/05/06 07:49:00;;;;;;;;;;;;;;;15.84;23.21;100227.03;5032716;28;19929;-63
2022/05/06 07:51:26;;;;;;;;;;;;;;;15.87;23.00;100235.34;5013772;28;19964;-64
2022/05/06 07:53:52;;;;;;;;;;;;;;;15.95;23.34;100230.63;5030634;28;19994;-63
2022/05/06 07:56:21;;;;;;;;;;;;;;;16.00;23.22;100228.81;5031382;28;19929;-63
2022/05/06 07:58:47;;;;;;;;;;;;;;;15.99;23.06;100227.19;5030206;28;19925;-63
2022/05/06 08:01:13;;;;;;;;;;;;;;;15.90;22.52;100231.38;5030236;28;19975;-64
2022/05/06 08:06:23;;;;;;;;;;;;;;;15.81;23.49;100222.19;5031196;28;20310;-63
2022/05/06 08:08:48;;;;;;;;;;;;;;;15.79;22.36;100229.66;5031014;28;19929;-63
2022/05/06 08:11:14;;;;;;;;;;;;;;;15.67;23.13;100230.59;5031253;28;19979;-64
2022/05/06 08:13:39;;;;;;;;;;;;;;;15.64;23.11;100223.03;5030076;28;19929;-64
2022/05/06 08:16:05;;;;;;;;;;;;;;;15.52;22.71;100226.91;5029078;28;19929;-63
2022/05/06 08:18:31;;;;;;;;;;;;;;;15.45;22.52;100225.25;5030593;28;19936;-63
2022/05/06 08:20:56;;;;;;;;;;;;;;;15.43;23.48;100230.03;5030661;28;20026;-62
2022/05/06 08:23:22;;;;;;;;;;;;;;;15.39;22.65;100225.44;4997331;28;20503;-62
2022/05/06 08:25:51;;;;;;;;;;;;;;;15.38;23.49;100215.78;5031459;28;20382;-63
2022/05/06 08:28:19;;;;;;;;;;;;;;;15.39;23.17;100215.56;5030623;28;19990;-62
2022/05/06 08:30:47;;;;;;;;;;;;;;;15.33;22.76;100213.06;5032242;28;20019;-62
2022/05/06 08:33:14;;;;;;;;;;;;;;;15.38;23.45;100219.28;5031018;28;19929;-61
2022/05/06 08:35:42;;;;;;;;;;;;;;;15.26;22.86;100207.09;5029826;28;19932;-61
2022/05/06 08:38:09;;;;;;;;;;;;;;;15.33;23.01;100205.88;4993098;28;20024;-64
2022/05/06 08:40:38;;;;;;;;;;;;;;;15.32;22.94;100200.75;5010870;28;20477;-64
2022/05/06 08:43:04;;;;;;;;;;;;;;;15.20;22.53;100206.22;5011176;28;19929;-63
2022/05/06 08:51:00;;;;;;;;;;;;;;;15.23;23.10;100200.38;5017785;28;19932;-62
2022/05/06 08:53:30;;;;;;;;;;;;;;;15.31;23.04;100191.94;5022262;28;20027;-64
2022/05/06 08:55:56;;;;;;;;;;;;;;;15.30;23.51;100184.19;5030938;28;19925;-63
2022/05/06 08:58:22;;;;;;;;;;;;;;;15.30;23.47;100193.00;5030048;28;19975;-65
2022/05/06 09:00:48;;;;;;;;;;;;;;;15.30;23.81;100189.53;5031426;28;20417;-63
2022/05/06 09:03:15;;;;;;;;;;;;;;;15.35;23.54;100187.72;5030892;28;19929;-62
2022/05/06 09:06:06;;;;;;;;;;;;;;;15.33;23.89;100194.38;5029913;28;20309;-62
2022/05/06 09:08:41;;;;;;;;;;;;;;;15.38;24.41;100189.91;5029435;28;20484;-63
2022/05/06 09:11:08;;;;;;;;;;;;;;;15.50;24.46;100192.44;5028575;28;19925;-65
2022/05/06 09:13:34;;;;;;;;;;;;;;;15.69;24.81;100189.47;5029881;28;19929;-65
2022/05/06 10:00:13;;;;;;;;;;;;;;;17.92;20.78;100183.06;5028816;28;19936;-61
2022/05/06 10:02:39;;;;;;;;;;;;;;;18.00;20.40;100171.00;5027471;28;20297;-64
2022/05/06 10:05:05;;;;;;;;;;;;;;;17.91;20.53;100168.88;5021522;28;20012;-64
2022/05/06 10:07:33;;;;;;;;;;;;;;;18.00;20.47;100169.16;5022419;28;19936;-63
2022/05/06 10:10:09;;;;;;;;;;;;;;;17.97;20.37;100169.69;4996189;28;19947;-63
2022/05/06 10:12:36;;;;;;;;;;;;;;;17.56;20.90;100168.75;5029670;28;19929;-63
2022/05/06 10:15:05;;;;;;;;;;;;;;;17.58;21.05;100153.22;5028533;28;20309;-64
2022/05/06 10:17:50;;;;;;;;;;;;;;;17.84;20.82;100160.25;5028708;28;20468;-64
2022/05/06 10:20:34;;;;;;;;;;;;;;;17.90;20.93;100156.50;5030455;28;19925;-64
2022/05/06 10:23:00;;;;;;;;;;;;;;;17.87;20.48;100154.34;5028954;28;19936;-64
2022/05/06 10:25:45;;;;;;;;;;;;;;;18.06;20.46;100151.13;5029920;28;19969;-66
2022/05/06 10:34:15;;;;;;;;;;;;;;;17.68;19.93;100156.72;5028425;28;19988;-63
2022/05/06 10:36:41;;;;;;;;;;;;;;;17.76;20.14;100146.53;5028834;28;19925;-64
2022/05/06 10:39:25;;;;;;;;;;;;;;;17.83;20.09;100141.75;5029911;28;19933;-63
2022/05/06 10:42:00;;;;;;;;;;;;;;;18.00;20.70;100144.16;5029878;28;19994;-65
2022/05/06 10:44:38;;;;;;;;;;;;;;;18.15;20.32;100138.81;5032701;28;19933;-65
2022/05/06 10:47:20;;;;;;;;;;;;;;;18.22;19.82;100133.97;5033732;28;19931;-64
2022/05/06 10:49:52;;;;;;;;;;;;;;;18.33;19.93;100140.16;5033130;28;19929;-64
2022/05/06 10:52:25;;;;;;;;;;;;;;;18.43;19.68;100142.00;5029500;28;19917;-63
2022/05/06 10:54:53;;;;;;;;;;;;;;;18.10;19.97;100139.63;5011992;28;19930;-64
2022/05/06 10:57:19;;;;;;;;;;;;;;;18.03;20.42;100141.78;5027280;28;19925;-65
2022/05/06 10:59:51;;;;;;;;;;;;;;;17.93;20.21;100131.03;5032341;28;19929;-65
2022/05/06 11:02:16;;;;;;;;;;;;;;;17.93;20.37;100139.06;5033445;28;19929;-65
2022/05/06 11:04:52;;;;;;;;;;;;;;;18.12;20.56;100132.13;5031203;28;19929;-68
2022/05/06 11:07:17;;;;;;;;;;;;;;;18.04;20.84;100126.47;5032298;28;19979;-65
2022/05/06 11:09:51;;;;;;;;;;;;;;;17.91;20.15;100123.28;5034338;28;19929;-65
2022/05/06 11:12:35;;;;;;;;;;;;;;;17.85;20.55;100120.81;5018208;28;19929;-65
2022/05/06 11:15:04;;;;;;;;;;;;;;;17.63;20.19;100119.19;5028341;28;20473;-66
2022/05/06 11:17:33;;;;;;;;;;;;;;;17.52;20.37;100122.09;5023599;28;19929;-64
2022/05/06 11:20:01;;;;;;;;;;;;;;;17.42;20.75;100123.69;5013715;28;19926;-65
2022/05/06 11:22:34;;;;;;;;;;;;;;;17.47;20.45;100121.03;5030490;28;20404;-67
2022/05/06 11:25:01;;;;;;;;;;;;;;;17.69;20.36;100115.44;5033453;28;19925;-66
2022/05/06 11:27:26;;;;;;;;;;;;;;;17.74;20.54;100106.59;5034442;28;20457;-65
2022/05/06 11:29:55;;;;;;;;;;;;;;;17.55;20.74;100097.44;5032569;28;19925;-67
2022/05/06 11:32:24;;;;;;;;;;;;;;;17.39;20.84;100102.00;5033348;28;20443;-66
2022/05/06 11:35:02;;;;;;;;;;;;;;;17.13;21.03;100104.59;5034116;28;19936;-65
2022/05/06 11:37:33;;;;;;;;;;;;;;;17.27;20.87;100099.56;5033701;28;20372;-65
2022/05/06 11:42:43;;;;;;;;;;;;;;;17.47;20.62;100098.75;5032628;28;20410;-64
2022/05/06 11:48:14;;;;;;;;;;;;;;;17.47;21.28;100099.59;5032013;28;19928;-65
2022/05/06 11:50:40;;;;;;;;;;;;;;;17.48;21.43;100095.84;5031363;28;19975;-66
2022/05/06 11:53:08;;;;;;;;;;;;;;;17.61;20.90;100094.50;5031588;28;19929;-65
2022/05/06 11:55:38;;;;;;;;;;;;;;;17.74;20.51;100082.47;5032676;28;20306;-65
2022/05/06 11:58:07;;;;;;;;;;;;;;;17.74;21.43;100076.31;5033328;28;19932;-65
2022/05/06 12:00:33;;;;;;;;;;;;;;;17.65;20.87;100084.06;5027762;28;19929;-67
2022/05/06 12:03:02;;;;;;;;;;;;;;;17.67;21.19;100079.22;5015732;28;19978;-64
2022/05/06 12:05:28;;;;;;;;;;;;;;;17.76;20.78;100084.88;5032575;28;20505;-65
2022/05/06 12:07:53;;;;;;;;;;;;;;;17.57;21.05;100092.63;5032906;28;20039;-65
2022/05/06 12:10:25;;;;;;;;;;;;;;;17.46;21.08;100086.44;5032587;28;19935;-70
2022/05/06 12:12:54;;;;;;;;;;;;;;;17.13;21.69;100083.16;5031905;28;19925;-66
2022/05/06 12:15:20;;;;;;;;;;;;;;;17.02;21.07;100079.63;5030958;28;20023;-67
2022/05/06 12:17:45;;;;;;;;;;;;;;;16.92;21.28;100073.47;5015342;28;20031;-66
2022/05/06 12:20:30;;;;;;;;;;;;;;;16.94;21.67;100069.44;5031149;28;19925;-65
2022/05/06 12:22:58;;;;;;;;;;;;;;;17.03;21.75;100067.06;5032103;28;19932;-67
2022/05/06 12:25:24;;;;;;;;;;;;;;;17.24;21.62;100063.38;5033210;28;20283;-65
2022/05/06 12:28:02;;;;;;;;;;;;;;;17.36;21.23;100052.41;5032442;28;19970;-67
2022/05/06 12:30:29;;;;;;;;;;;;;;;17.30;21.15;100060.72;5031106;28;20490;-70
2022/05/06 12:33:04;;;;;;;;;;;;;;;17.37;21.20;100059.38;5031652;28;20027;-66
2022/05/06 12:35:30;;;;;;;;;;;;;;;17.46;21.65;100054.28;5032272;28;19929;-67
2022/05/06 12:37:56;;;;;;;;;;;;;;;17.34;21.48;100053.72;5032983;28;19995;-66
2022/05/06 12:40:29;;;;;;;;;;;;;;;17.20;21.45;100045.41;5032396;28;19936;-68
2022/05/06 12:43:04;;;;;;;;;;;;;;;17.19;21.33;100049.16;5031353;28;19931;-65
2022/05/06 12:45:29;;;;;;;;;;;;;;;17.17;21.36;100035.22;5031771;28;19929;-66
2022/05/06 12:50:40;;;;;;;;;;;;;;;17.37;21.76;100031.75;5030642;28;19929;-65
2022/05/06 12:53:12;;;;;;;;;;;;;;;17.36;22.06;100030.97;5030263;28;19932;-66
2022/05/06 12:55:37;;;;;;;;;;;;;;;17.30;21.79;100033.91;5029778;28;19929;-67
2022/05/06 12:58:03;;;;;;;;;;;;;;;17.09;21.79;100028.50;5031659;28;20366;-65
2022/05/06 13:00:29;;;;;;;;;;;;;;;17.12;22.17;100033.34;5031016;28;20410;-65
2022/05/06 13:02:55;;;;;;;;;;;;;;;17.08;21.68;100028.75;5030977;28;19967;-64
2022/05/06 13:05:21;;;;;;;;;;;;;;;17.09;21.84;100035.72;5031231;28;20471;-65
2022/05/06 13:07:47;;;;;;;;;;;;;;;17.03;21.35;100034.94;5031559;28;19971;-66
2022/05/06 13:10:12;;;;;;;;;;;;;;;17.08;21.65;100028.75;5031731;28;19932;-66
2022/05/06 13:12:38;;;;;;;;;;;;;;;16.98;21.88;100027.69;5031547;28;19931;-66
2022/05/06 13:15:04;;;;;;;;;;;;;;;17.06;21.37;100022.84;5030714;28;19925;-66
2022/05/06 13:17:29;;;;;;;;;;;;;;;17.11;21.83;100020.19;5030761;28;19925;-66
2022/05/06 13:19:55;;;;;;;;;;;;;;;17.08;21.42;100026.88;5031926;28;20347;-65
2022/05/06 13:22:21;;;;;;;;;;;;;;;16.96;21.53;100013.72;5031593;28;19929;-66
2022/05/06 13:24:47;;;;;;;;;;;;;;;16.92;21.53;100017.22;5030943;28;19975;-66
2022/05/06 13:27:13;;;;;;;;;;;;;;;16.81;21.68;100011.03;5029996;28;19972;-65
2022/05/06 13:29:38;;;;;;;;;;;;;;;16.69;21.44;100016.56;5030419;28;19932;-65
2022/05/06 13:32:04;;;;;;;;;;;;;;;16.73;21.76;100014.97;5030805;28;20382;-66
2022/05/06 13:34:30;;;;;;;;;;;;;;;16.82;21.51;100020.66;5030572;28;19948;-67
2022/05/06 13:36:56;;;;;;;;;;;;;;;16.89;21.69;100004.38;5030642;28;19936;-61
2022/05/06 13:39:22;;;;;;;;;;;;;;;17.02;21.56;100007.31;5031598;28;19980;-64
2022/05/06 13:41:47;;;;;;;;;;;;;;;17.12;21.15;100003.88;5032348;28;20010;-63
2022/05/06 13:44:13;;;;;;;;;;;;;;;17.17;20.73;99995.81;5032032;28;20018;-63
2022/05/06 13:46:39;;;;;;;;;;;;;;;17.08;20.97;100008.13;5032267;28;19925;-63
2022/05/06 13:49:05;;;;;;;;;;;;;;;16.91;21.22;99996.84;5031404;28;19925;-64
2022/05/06 13:51:30;;;;;;;;;;;;;;;16.86;21.36;100005.69;4997931;28;19929;-62
2022/05/06 13:53:56;;;;;;;;;;;;;;;16.83;20.97;99998.19;5030641;28;19933;-62
2022/05/06 13:59:06;;;;;;;;;;;;;;;16.73;21.19;100001.59;5031351;28;19988;-63
2022/05/06 14:01:33;;;;;;;;;;;;;;;16.69;21.31;99995.16;5031554;28;19972;-63
2022/05/06 14:03:59;;;;;;;;;;;;;;;16.56;21.66;99996.47;5030584;28;20390;-63
2022/05/06 14:06:24;;;;;;;;;;;;;;;16.43;21.71;99998.81;5029574;28;19929;-64
2022/05/06 14:08:50;;;;;;;;;;;;;;;16.35;21.99;100008.94;5031468;28;19921;-63
2022/05/06 14:11:16;;;;;;;;;;;;;;;16.28;21.65;100000.34;5031200;28;20035;-61
2022/05/06 14:13:42;;;;;;;;;;;;;;;16.24;21.92;99996.59;5013111;28;19952;-64
2022/05/06 14:16:08;;;;;;;;;;;;;;;16.25;21.92;99990.16;5030469;28;19968;-64
2022/05/06 14:18:34;;;;;;;;;;;;;;;16.24;21.75;99993.91;5030623;28;20359;-65